Ritchie, South Africa
Current Conditions -  °F | °C
As of 10:00 AM on Thursday 27 Nov 2014 (Local Time) from FAKM Reporting Station
Broken Clouds Broken Clouds  
Wind Chill: 70°   Ceiling: 2500
Heat Index: 70°   Visibility: 6mi
Dew Point: 57°   Wind: 14mph
Humidity: 64%   Direction: 310°NW
Pressure: 29.94"   Gusts: NA
Location:  29.04°S, 24.6°E
Report Text: FAKM 270800Z 31012KT 9999 BKN025 21/14 Q1014
Loading
Personal Weather Stations






























Interactive Weather Map New forecast layout! Learn more

10-Day Weather Forecast

Advertisements
Track Severe Weather on mobile